sensor_id;sensor_type;location;lat;lon;timestamp;temperature;humidity
23251;DHT22;11794;49.730;10.088;2023-06-24T00:02:16;14.90;99.90
23251;DHT22;11794;49.730;10.088;2023-06-24T00:04:42;15.00;99.90
23251;DHT22;11794;49.730;10.088;2023-06-24T00:07:07;15.00;99.90
23251;DHT22;11794;49.730;10.088;2023-06-24T00:09:33;15.00;99.90
23251;DHT22;11794;49.730;10.088;2023-06-24T00:11:59;15.10;99.90
23251;DHT22;11794;49.730;10.088;2023-06-24T00:14:25;15.10;99.90
23251;DHT22;11794;49.730;10.088;2023-06-24T00:16:55;15.20;99.90
23251;DHT22;11794;49.730;10.088;2023-06-24T00:19:24;15.20;99.90
23251;DHT22;11794;49.730;10.088;2023-06-24T00:21:51;15.10;99.90
23251;DHT22;11794;49.730;10.088;2023-06-24T00:24:20;15.00;99.90
23251;DHT22;11794;49.730;10.088;2023-06-24T00:26:51;15.10;99.90
23251;DHT22;11794;49.730;10.088;2023-06-24T00:29:17;15.10;99.90
23251;DHT22;11794;49.730;10.088;2023-06-24T00:31:43;15.10;99.90
23251;DHT22;11794;49.730;10.088;2023-06-24T00:34:09;15.20;99.90
23251;DHT22;11794;49.730;10.088;2023-06-24T00:36:34;15.20;99.90
23251;DHT22;11794;49.730;10.088;2023-06-24T00:39:04;15.00;99.90
23251;DHT22;11794;49.730;10.088;2023-06-24T00:41:31;14.90;99.90
23251;DHT22;11794;49.730;10.088;2023-06-24T00:43:57;14.90;99.90
23251;DHT22;11794;49.730;10.088;2023-06-24T00:46:24;15.00;99.90
23251;DHT22;11794;49.730;10.088;2023-06-24T00:48:52;14.90;99.90
23251;DHT22;11794;49.730;10.088;2023-06-24T00:51:17;14.80;99.90
23251;DHT22;11794;49.730;10.088;2023-06-24T00:53:46;14.90;99.90
23251;DHT22;11794;49.730;10.088;2023-06-24T00:56:13;14.70;99.90
23251;DHT22;11794;49.730;10.088;2023-06-24T00:58:39;14.70;99.90
23251;DHT22;11794;49.730;10.088;2023-06-24T01:01:07;14.70;99.90
23251;DHT22;11794;49.730;10.088;2023-06-24T01:03:34;14.50;99.90
23251;DHT22;11794;49.730;10.088;2023-06-24T01:06:02;14.60;99.90
23251;DHT22;11794;49.730;10.088;2023-06-24T01:08:28;14.60;99.90
23251;DHT22;11794;49.730;10.088;2023-06-24T01:10:54;14.70;99.90
23251;DHT22;11794;49.730;10.088;2023-06-24T01:13:19;14.70;99.90
23251;DHT22;11794;49.730;10.088;2023-06-24T01:15:46;14.80;99.90
23251;DHT22;11794;49.730;10.088;2023-06-24T01:18:29;14.70;99.90
23251;DHT22;11794;49.730;10.088;2023-06-24T01:21:06;14.70;99.90
23251;DHT22;11794;49.730;10.088;2023-06-24T01:31:46;14.60;99.90
23251;DHT22;11794;49.730;10.088;2023-06-24T01:37:04;14.60;99.90
23251;DHT22;11794;49.730;10.088;2023-06-24T01:39:37;14.60;99.90
23251;DHT22;11794;49.730;10.088;2023-06-24T01:42:11;14.60;99.90
23251;DHT22;11794;49.730;10.088;2023-06-24T01:44:39;14.50;99.90
23251;DHT22;11794;49.730;10.088;2023-06-24T01:47:07;14.50;99.90
23251;DHT22;11794;49.730;10.088;2023-06-24T01:49:39;14.40;99.90
23251;DHT22;11794;49.730;10.088;2023-06-24T01:52:08;14.40;99.90
23251;DHT22;11794;49.730;10.088;2023-06-24T01:54:35;14.30;99.90
23251;DHT22;11794;49.730;10.088;2023-06-24T01:57:02;14.30;99.90
23251;DHT22;11794;49.730;10.088;2023-06-24T01:59:29;14.30;99.90
23251;DHT22;11794;49.730;10.088;2023-06-24T02:01:55;14.30;99.90
23251;DHT22;11794;49.730;10.088;2023-06-24T02:04:22;14.30;99.90
23251;DHT22;11794;49.730;10.088;2023-06-24T02:06:50;14.30;99.90
23251;DHT22;11794;49.730;10.088;2023-06-24T02:09:17;14.30;99.90
23251;DHT22;11794;49.730;10.088;2023-06-24T02:11:44;14.20;99.90
23251;DHT22;11794;49.730;10.088;2023-06-24T02:14:10;14.10;99.90
23251;DHT22;11794;49.730;10.088;2023-06-24T02:16:39;14.10;99.90
23251;DHT22;11794;49.730;10.088;2023-06-24T02:19:08;14.10;99.90
23251;DHT22;11794;49.730;10.088;2023-06-24T02:21:35;14.10;99.90
23251;DHT22;11794;49.730;10.088;2023-06-24T02:24:02;14.10;99.90
23251;DHT22;11794;49.730;10.088;2023-06-24T02:26:28;14.00;99.90
23251;DHT22;11794;49.730;10.088;2023-06-24T02:28:54;14.10;99.90
23251;DHT22;11794;49.730;10.088;2023-06-24T02:31:21;14.10;99.90
23251;DHT22;11794;49.730;10.088;2023-06-24T02:33:46;14.20;99.90
23251;DHT22;11794;49.730;10.088;2023-06-24T02:36:12;14.10;99.90
23251;DHT22;11794;49.730;10.088;2023-06-24T02:38:38;14.10;99.90
23251;DHT22;11794;49.730;10.088;2023-06-24T02:41:03;14.10;99.90
23251;DHT22;11794;49.730;10.088;2023-06-24T02:43:30;14.10;99.90
23251;DHT22;11794;49.730;10.088;2023-06-24T02:45:57;14.00;99.90
23251;DHT22;11794;49.730;10.088;2023-06-24T02:48:23;14.00;99.90
23251;DHT22;11794;49.730;10.088;2023-06-24T02:50:50;14.00;99.90
23251;DHT22;11794;49.730;10.088;2023-06-24T02:53:16;13.90;99.90
23251;DHT22;11794;49.730;10.088;2023-06-24T02:55:42;13.90;99.90
23251;DHT22;11794;49.730;10.088;2023-06-24T02:58:09;13.80;99.90
23251;DHT22;11794;49.730;10.088;2023-06-24T03:00:35;13.80;99.90
23251;DHT22;11794;49.730;10.088;2023-06-24T03:03:02;13.80;99.90
23251;DHT22;11794;49.730;10.088;2023-06-24T03:05:29;13.90;99.90
23251;DHT22;11794;49.730;10.088;2023-06-24T03:07:55;14.00;99.90
23251;DHT22;11794;49.730;10.088;2023-06-24T03:10:23;14.00;99.90
23251;DHT22;11794;49.730;10.088;2023-06-24T03:12:49;14.00;99.90
23251;DHT22;11794;49.730;10.088;2023-06-24T03:15:14;14.00;99.90
23251;DHT22;11794;49.730;10.088;2023-06-24T03:17:40;13.90;99.90
23251;DHT22;11794;49.730;10.088;2023-06-24T03:20:06;13.90;99.90
23251;DHT22;11794;49.730;10.088;2023-06-24T03:22:33;13.90;99.90
23251;DHT22;11794;49.730;10.088;2023-06-24T03:24:58;13.90;99.90
23251;DHT22;11794;49.730;10.088;2023-06-24T03:27:24;13.90;99.90
23251;DHT22;11794;49.730;10.088;2023-06-24T03:29:49;14.00;99.90
23251;DHT22;11794;49.730;10.088;2023-06-24T03:32:15;14.00;99.90
23251;DHT22;11794;49.730;10.088;2023-06-24T03:34:41;14.00;99.90
23251;DHT22;11794;49.730;10.088;2023-06-24T03:37:06;14.00;99.90
23251;DHT22;11794;49.730;10.088;2023-06-24T03:39:32;14.00;99.90
23251;DHT22;11794;49.730;10.088;2023-06-24T03:41:57;14.00;99.90
23251;DHT22;11794;49.730;10.088;2023-06-24T03:44:23;14.00;99.90
23251;DHT22;11794;49.730;10.088;2023-06-24T03:46:48;14.00;99.90
23251;DHT22;11794;49.730;10.088;2023-06-24T03:49:14;14.10;99.90
23251;DHT22;11794;49.730;10.088;2023-06-24T03:51:39;14.20;99.90
23251;DHT22;11794;49.730;10.088;2023-06-24T03:54:05;14.10;99.90
23251;DHT22;11794;49.730;10.088;2023-06-24T03:56:30;14.10;99.90
23251;DHT22;11794;49.730;10.088;2023-06-24T03:58:56;14.10;99.90
23251;DHT22;11794;49.730;10.088;2023-06-24T04:01:21;14.00;99.90
23251;DHT22;11794;49.730;10.088;2023-06-24T04:03:47;14.00;99.90
23251;DHT22;11794;49.730;10.088;2023-06-24T04:06:12;14.00;99.90
23251;DHT22;11794;49.730;10.088;2023-06-24T04:08:38;14.10;99.90
23251;DHT22;11794;49.730;10.088;2023-06-24T04:11:08;14.10;99.90
23251;DHT22;11794;49.730;10.088;2023-06-24T04:13:34;14.10;99.90
23251;DHT22;11794;49.730;10.088;2023-06-24T04:16:00;14.00;99.90
23251;DHT22;11794;49.730;10.088;2023-06-24T04:18:26;14.00;99.90
23251;DHT22;11794;49.730;10.088;2023-06-24T04:20:51;14.00;99.90
23251;DHT22;11794;49.730;10.088;2023-06-24T04:23:17;14.10;99.90
23251;DHT22;11794;49.730;10.088;2023-06-24T04:25:43;14.20;99.90
23251;DHT22;11794;49.730;10.088;2023-06-24T04:28:08;14.20;99.90
23251;DHT22;11794;49.730;10.088;2023-06-24T04:30:34;14.40;99.90
23251;DHT22;11794;49.730;10.088;2023-06-24T04:33:06;14.40;99.90
23251;DHT22;11794;49.730;10.088;2023-06-24T04:35:31;14.50;99.90
23251;DHT22;11794;49.730;10.088;2023-06-24T04:37:57;14.40;99.90
23251;DHT22;11794;49.730;10.088;2023-06-24T04:40:22;14.30;99.90
23251;DHT22;11794;49.730;10.088;2023-06-24T04:42:48;14.40;99.90
23251;DHT22;11794;49.730;10.088;2023-06-24T04:45:14;14.40;99.90
23251;DHT22;11794;49.730;10.088;2023-06-24T04:47:39;14.50;99.90
23251;DHT22;11794;49.730;10.088;2023-06-24T04:50:05;14.50;99.90
23251;DHT22;11794;49.730;10.088;2023-06-24T04:52:31;14.60;99.90
23251;DHT22;11794;49.730;10.088;2023-06-24T04:54:57;14.60;99.90
23251;DHT22;11794;49.730;10.088;2023-06-24T04:57:25;14.70;99.90
23251;DHT22;11794;49.730;10.088;2023-06-24T04:59:51;14.70;99.90
23251;DHT22;11794;49.730;10.088;2023-06-24T05:02:16;14.80;99.90
23251;DHT22;11794;49.730;10.088;2023-06-24T05:04:42;14.90;99.90
23251;DHT22;11794;49.730;10.088;2023-06-24T05:07:07;14.80;99.90
23251;DHT22;11794;49.730;10.088;2023-06-24T05:09:33;14.90;99.90
23251;DHT22;11794;49.730;10.088;2023-06-24T05:11:58;15.00;99.90
23251;DHT22;11794;49.730;10.088;2023-06-24T05:14:24;15.10;99.90
23251;DHT22;11794;49.730;10.088;2023-06-24T05:16:49;15.10;99.90
23251;DHT22;11794;49.730;10.088;2023-06-24T05:19:15;15.10;99.90
23251;DHT22;11794;49.730;10.088;2023-06-24T05:21:41;15.20;99.90
23251;DHT22;11794;49.730;10.088;2023-06-24T05:24:07;15.30;99.90
23251;DHT22;11794;49.730;10.088;2023-06-24T05:26:32;15.30;99.90
23251;DHT22;11794;49.730;10.088;2023-06-24T05:28:58;15.30;99.90
23251;DHT22;11794;49.730;10.088;2023-06-24T05:31:23;15.50;99.90
23251;DHT22;11794;49.730;10.088;2023-06-24T05:33:49;15.50;99.90
23251;DHT22;11794;49.730;10.088;2023-06-24T05:36:14;15.60;99.90
23251;DHT22;11794;49.730;10.088;2023-06-24T05:38:40;15.60;99.90
23251;DHT22;11794;49.730;10.088;2023-06-24T05:41:05;15.70;99.90
23251;DHT22;11794;49.730;10.088;2023-06-24T05:43:31;15.80;99.90
23251;DHT22;11794;49.730;10.088;2023-06-24T05:45:56;15.90;99.90
23251;DHT22;11794;49.730;10.088;2023-06-24T05:48:22;15.90;99.90
23251;DHT22;11794;49.730;10.088;2023-06-24T05:50:47;16.00;99.90
23251;DHT22;11794;49.730;10.088;2023-06-24T05:53:13;16.10;99.90
23251;DHT22;11794;49.730;10.088;2023-06-24T05:55:38;16.30;99.90
23251;DHT22;11794;49.730;10.088;2023-06-24T05:58:04;16.30;99.90
23251;DHT22;11794;49.730;10.088;2023-06-24T06:00:29;16.40;99.90
23251;DHT22;11794;49.730;10.088;2023-06-24T06:02:55;16.40;99.90
23251;DHT22;11794;49.730;10.088;2023-06-24T06:05:20;16.60;99.90
23251;DHT22;11794;49.730;10.088;2023-06-24T06:07:46;16.80;99.90
23251;DHT22;11794;49.730;10.088;2023-06-24T06:10:11;16.70;99.90
23251;DHT22;11794;49.730;10.088;2023-06-24T06:12:37;16.80;99.90
23251;DHT22;11794;49.730;10.088;2023-06-24T06:15:03;17.00;99.90
23251;DHT22;11794;49.730;10.088;2023-06-24T06:17:28;17.00;99.90
23251;DHT22;11794;49.730;10.088;2023-06-24T06:19:54;17.20;99.90
23251;DHT22;11794;49.730;10.088;2023-06-24T06:22:19;17.30;99.90
23251;DHT22;11794;49.730;10.088;2023-06-24T06:24:45;17.50;99.90
23251;DHT22;11794;49.730;10.088;2023-06-24T06:27:10;17.70;99.90
23251;DHT22;11794;49.730;10.088;2023-06-24T06:29:39;18.00;99.90
23251;DHT22;11794;49.730;10.088;2023-06-24T06:32:04;18.20;99.90
23251;DHT22;11794;49.730;10.088;2023-06-24T06:34:30;18.50;99.90
23251;DHT22;11794;49.730;10.088;2023-06-24T06:36:55;18.80;99.90
23251;DHT22;11794;49.730;10.088;2023-06-24T06:39:21;19.00;99.90
23251;DHT22;11794;49.730;10.088;2023-06-24T06:41:46;19.20;99.90
23251;DHT22;11794;49.730;10.088;2023-06-24T06:44:12;19.20;99.90
23251;DHT22;11794;49.730;10.088;2023-06-24T06:46:37;19.30;99.90
23251;DHT22;11794;49.730;10.088;2023-06-24T06:49:03;19.40;99.90
23251;DHT22;11794;49.730;10.088;2023-06-24T06:51:28;19.60;99.90
23251;DHT22;11794;49.730;10.088;2023-06-24T06:53:54;19.90;99.90
23251;DHT22;11794;49.730;10.088;2023-06-24T06:56:23;20.20;99.90
23251;DHT22;11794;49.730;10.088;2023-06-24T06:58:50;20.40;99.90
23251;DHT22;11794;49.730;10.088;2023-06-24T07:01:15;20.50;99.90
23251;DHT22;11794;49.730;10.088;2023-06-24T07:03:41;20.50;99.90
23251;DHT22;11794;49.730;10.088;2023-06-24T07:06:06;20.40;99.90
23251;DHT22;11794;49.730;10.088;2023-06-24T07:08:32;20.50;99.90
23251;DHT22;11794;49.730;10.088;2023-06-24T07:10:57;20.60;99.90
23251;DHT22;11794;49.730;10.088;2023-06-24T07:13:23;20.80;99.90
23251;DHT22;11794;49.730;10.088;2023-06-24T07:15:48;21.00;99.90
23251;DHT22;11794;49.730;10.088;2023-06-24T07:18:14;21.30;99.90
23251;DHT22;11794;49.730;10.088;2023-06-24T07:20:39;21.60;99.90
23251;DHT22;11794;49.730;10.088;2023-06-24T07:23:05;21.80;99.90
23251;DHT22;11794;49.730;10.088;2023-06-24T07:25:30;22.10;99.90
23251;DHT22;11794;49.730;10.088;2023-06-24T07:27:56;22.50;99.90
23251;DHT22;11794;49.730;10.088;2023-06-24T07:30:22;23.20;99.90
23251;DHT22;11794;49.730;10.088;2023-06-24T07:32:47;23.70;99.90
23251;DHT22;11794;49.730;10.088;2023-06-24T07:35:13;24.20;99.90
23251;DHT22;11794;49.730;10.088;2023-06-24T07:37:41;24.50;99.90
23251;DHT22;11794;49.730;10.088;2023-06-24T07:40:06;24.80;99.90
23251;DHT22;11794;49.730;10.088;2023-06-24T07:42:33;25.20;99.90
23251;DHT22;11794;49.730;10.088;2023-06-24T07:44:59;25.50;99.90
23251;DHT22;11794;49.730;10.088;2023-06-24T07:47:25;25.90;99.90
23251;DHT22;11794;49.730;10.088;2023-06-24T07:49:51;26.10;99.90
23251;DHT22;11794;49.730;10.088;2023-06-24T07:52:16;26.00;99.90
23251;DHT22;11794;49.730;10.088;2023-06-24T07:54:42;26.00;99.90
23251;DHT22;11794;49.730;10.088;2023-06-24T07:57:08;26.30;99.90
23251;DHT22;11794;49.730;10.088;2023-06-24T07:59:34;26.60;99.90
23251;DHT22;11794;49.730;10.088;2023-06-24T08:01:59;27.00;99.90
23251;DHT22;11794;49.730;10.088;2023-06-24T08:04:25;27.40;99.90
23251;DHT22;11794;49.730;10.088;2023-06-24T08:06:51;27.90;99.90
23251;DHT22;11794;49.730;10.088;2023-06-24T08:09:17;28.20;99.90
23251;DHT22;11794;49.730;10.088;2023-06-24T08:11:43;28.10;99.90
23251;DHT22;11794;49.730;10.088;2023-06-24T08:14:08;28.20;99.90
23251;DHT22;11794;49.730;10.088;2023-06-24T08:16:34;28.20;99.90
23251;DHT22;11794;49.730;10.088;2023-06-24T08:18:59;28.30;99.90
23251;DHT22;11794;49.730;10.088;2023-06-24T08:21:25;28.80;99.90
23251;DHT22;11794;49.730;10.088;2023-06-24T08:23:50;29.00;99.90
23251;DHT22;11794;49.730;10.088;2023-06-24T08:26:17;29.20;99.90
23251;DHT22;11794;49.730;10.088;2023-06-24T08:28:42;29.30;98.50
23251;DHT22;11794;49.730;10.088;2023-06-24T08:31:08;29.20;98.40
23251;DHT22;11794;49.730;10.088;2023-06-24T08:33:33;29.30;99.30
23251;DHT22;11794;49.730;10.088;2023-06-24T08:35:59;29.70;98.70
23251;DHT22;11794;49.730;10.088;2023-06-24T08:38:24;29.20;98.30
23251;DHT22;11794;49.730;10.088;2023-06-24T08:40:50;29.20;98.20
23251;DHT22;11794;49.730;10.088;2023-06-24T08:43:16;29.30;97.20
23251;DHT22;11794;49.730;10.088;2023-06-24T08:45:42;29.20;96.40
23251;DHT22;11794;49.730;10.088;2023-06-24T08:48:07;29.10;98.40
23251;DHT22;11794;49.730;10.088;2023-06-24T08:50:43;29.10;98.90
23251;DHT22;11794;49.730;10.088;2023-06-24T08:53:10;29.40;97.10
23251;DHT22;11794;49.730;10.088;2023-06-24T08:55:46;29.30;95.40
23251;DHT22;11794;49.730;10.088;2023-06-24T08:58:13;29.60;98.00
23251;DHT22;11794;49.730;10.088;2023-06-24T09:00:39;30.40;97.40
23251;DHT22;11794;49.730;10.088;2023-06-24T09:03:04;30.80;94.80
23251;DHT22;11794;49.730;10.088;2023-06-24T09:05:30;31.00;95.60
23251;DHT22;11794;49.730;10.088;2023-06-24T09:07:55;30.90;94.90
23251;DHT22;11794;49.730;10.088;2023-06-24T09:10:38;30.90;95.10
23251;DHT22;11794;49.730;10.088;2023-06-24T09:13:05;31.30;94.80
23251;DHT22;11794;49.730;10.088;2023-06-24T09:15:32;31.30;92.60
23251;DHT22;11794;49.730;10.088;2023-06-24T09:17:58;31.50;92.20
23251;DHT22;11794;49.730;10.088;2023-06-24T09:20:26;31.90;92.60
23251;DHT22;11794;49.730;10.088;2023-06-24T09:22:51;31.90;91.70
23251;DHT22;11794;49.730;10.088;2023-06-24T09:25:20;31.60;90.80
23251;DHT22;11794;49.730;10.088;2023-06-24T09:27:49;30.80;91.90
23251;DHT22;11794;49.730;10.088;2023-06-24T09:30:24;30.40;91.00
23251;DHT22;11794;49.730;10.088;2023-06-24T09:32:50;30.30;92.00
23251;DHT22;11794;49.730;10.088;2023-06-24T09:35:24;30.70;91.90
23251;DHT22;11794;49.730;10.088;2023-06-24T09:37:54;31.10;93.20
23251;DHT22;11794;49.730;10.088;2023-06-24T09:40:20;31.30;91.80
23251;DHT22;11794;49.730;10.088;2023-06-24T09:42:54;31.60;92.40
23251;DHT22;11794;49.730;10.088;2023-06-24T09:45:27;31.90;91.00
23251;DHT22;11794;49.730;10.088;2023-06-24T09:47:54;32.20;91.40
23251;DHT22;11794;49.730;10.088;2023-06-24T09:50:20;31.80;90.10
23251;DHT22;11794;49.730;10.088;2023-06-24T09:52:47;31.70;90.90
23251;DHT22;11794;49.730;10.088;2023-06-24T09:55:14;32.10;91.40
23251;DHT22;11794;49.730;10.088;2023-06-24T09:57:42;32.80;90.40
23251;DHT22;11794;49.730;10.088;2023-06-24T10:00:10;33.40;89.10
23251;DHT22;11794;49.730;10.088;2023-06-24T10:02:36;33.50;85.60
23251;DHT22;11794;49.730;10.088;2023-06-24T10:05:03;32.80;89.10
23251;DHT22;11794;49.730;10.088;2023-06-24T10:07:31;33.40;88.00
23251;DHT22;11794;49.730;10.088;2023-06-24T10:09:57;33.90;83.00
23251;DHT22;11794;49.730;10.088;2023-06-24T10:12:22;33.90;83.70
23251;DHT22;11794;49.730;10.088;2023-06-24T10:14:48;34.20;81.80
23251;DHT22;11794;49.730;10.088;2023-06-24T10:17:14;33.80;81.90
23251;DHT22;11794;49.730;10.088;2023-06-24T10:19:41;33.70;83.20
23251;DHT22;11794;49.730;10.088;2023-06-24T10:22:10;33.80;84.50
23251;DHT22;11794;49.730;10.088;2023-06-24T10:24:38;33.80;83.20
23251;DHT22;11794;49.730;10.088;2023-06-24T10:27:18;34.40;80.90
23251;DHT22;11794;49.730;10.088;2023-06-24T10:29:51;35.00;80.50
23251;DHT22;11794;49.730;10.088;2023-06-24T10:32:18;35.10;77.40
23251;DHT22;11794;49.730;10.088;2023-06-24T10:34:45;34.90;75.50
23251;DHT22;11794;49.730;10.088;2023-06-24T10:39:47;33.70;79.50
23251;DHT22;11794;49.730;10.088;2023-06-24T10:44:48;34.20;77.70
23251;DHT22;11794;49.730;10.088;2023-06-24T10:47:13;34.40;80.10
23251;DHT22;11794;49.730;10.088;2023-06-24T10:49:39;34.80;78.10
23251;DHT22;11794;49.730;10.088;2023-06-24T10:52:10;34.90;72.20
23251;DHT22;11794;49.730;10.088;2023-06-24T10:54:40;34.90;77.10
23251;DHT22;11794;49.730;10.088;2023-06-24T10:57:10;35.00;78.20
23251;DHT22;11794;49.730;10.088;2023-06-24T10:59:47;34.30;77.40
23251;DHT22;11794;49.730;10.088;2023-06-24T11:02:17;34.00;77.80
23251;DHT22;11794;49.730;10.088;2023-06-24T11:04:47;34.60;78.90
23251;DHT22;11794;49.730;10.088;2023-06-24T11:07:13;35.50;76.20
23251;DHT22;11794;49.730;10.088;2023-06-24T11:09:40;35.70;75.00
23251;DHT22;11794;49.730;10.088;2023-06-24T11:12:10;35.70;73.80
23251;DHT22;11794;49.730;10.088;2023-06-24T11:14:38;35.30;71.40
23251;DHT22;11794;49.730;10.088;2023-06-24T11:17:04;35.30;75.70
23251;DHT22;11794;49.730;10.088;2023-06-24T11:19:32;35.50;71.70
23251;DHT22;11794;49.730;10.088;2023-06-24T11:22:01;35.50;67.80
23251;DHT22;11794;49.730;10.088;2023-06-24T11:24:30;35.30;71.60
23251;DHT22;11794;49.730;10.088;2023-06-24T11:26:56;35.40;65.80
23251;DHT22;11794;49.730;10.088;2023-06-24T11:29:22;35.10;70.80
23251;DHT22;11794;49.730;10.088;2023-06-24T11:31:49;34.70;65.00
23251;DHT22;11794;49.730;10.088;2023-06-24T11:34:15;34.40;66.80
23251;DHT22;11794;49.730;10.088;2023-06-24T11:36:40;34.30;69.40
23251;DHT22;11794;49.730;10.088;2023-06-24T11:39:06;35.20;70.60
23251;DHT22;11794;49.730;10.088;2023-06-24T11:41:32;35.80;70.50
23251;DHT22;11794;49.730;10.088;2023-06-24T11:43:58;35.70;69.80
23251;DHT22;11794;49.730;10.088;2023-06-24T11:46:30;35.80;72.10
23251;DHT22;11794;49.730;10.088;2023-06-24T11:49:04;35.70;71.50
23251;DHT22;11794;49.730;10.088;2023-06-24T11:51:30;35.40;71.30
23251;DHT22;11794;49.730;10.088;2023-06-24T11:53:59;36.10;72.00
23251;DHT22;11794;49.730;10.088;2023-06-24T11:56:38;36.80;69.40
23251;DHT22;11794;49.730;10.088;2023-06-24T11:59:15;37.10;69.20
23251;DHT22;11794;49.730;10.088;2023-06-24T12:01:44;37.10;63.80
23251;DHT22;11794;49.730;10.088;2023-06-24T12:04:11;36.50;66.00
23251;DHT22;11794;49.730;10.088;2023-06-24T12:06:39;36.40;66.50
23251;DHT22;11794;49.730;10.088;2023-06-24T12:09:05;36.50;66.60
23251;DHT22;11794;49.730;10.088;2023-06-24T12:11:30;36.40;68.70
23251;DHT22;11794;49.730;10.088;2023-06-24T12:13:56;36.90;67.70
23251;DHT22;11794;49.730;10.088;2023-06-24T12:16:21;37.30;67.50
23251;DHT22;11794;49.730;10.088;2023-06-24T12:18:48;37.30;68.40
23251;DHT22;11794;49.730;10.088;2023-06-24T12:21:14;37.20;67.60
23251;DHT22;11794;49.730;10.088;2023-06-24T12:23:39;36.70;65.60
23251;DHT22;11794;49.730;10.088;2023-06-24T12:26:05;36.20;65.10
23251;DHT22;11794;49.730;10.088;2023-06-24T12:28:30;35.60;66.30
23251;DHT22;11794;49.730;10.088;2023-06-24T12:30:56;35.70;68.10
23251;DHT22;11794;49.730;10.088;2023-06-24T12:33:21;36.20;67.20
23251;DHT22;11794;49.730;10.088;2023-06-24T12:35:48;36.90;67.10
23251;DHT22;11794;49.730;10.088;2023-06-24T12:38:14;37.80;63.10
23251;DHT22;11794;49.730;10.088;2023-06-24T12:40:39;38.30;62.30
23251;DHT22;11794;49.730;10.088;2023-06-24T12:43:05;38.10;59.80
23251;DHT22;11794;49.730;10.088;2023-06-24T12:45:30;37.90;61.30
23251;DHT22;11794;49.730;10.088;2023-06-24T12:47:56;38.60;63.60
23251;DHT22;11794;49.730;10.088;2023-06-24T12:50:21;39.20;61.30
23251;DHT22;11794;49.730;10.088;2023-06-24T12:52:47;39.80;61.40
23251;DHT22;11794;49.730;10.088;2023-06-24T12:55:12;40.10;60.20
23251;DHT22;11794;49.730;10.088;2023-06-24T12:57:38;40.30;56.20
23251;DHT22;11794;49.730;10.088;2023-06-24T13:00:07;40.10;55.20
23251;DHT22;11794;49.730;10.088;2023-06-24T13:02:33;39.70;56.10
23251;DHT22;11794;49.730;10.088;2023-06-24T13:04:59;40.00;56.70
23251;DHT22;11794;49.730;10.088;2023-06-24T13:07:25;40.90;57.90
23251;DHT22;11794;49.730;10.088;2023-06-24T13:09:50;40.20;54.80
23251;DHT22;11794;49.730;10.088;2023-06-24T13:12:16;40.00;57.00
23251;DHT22;11794;49.730;10.088;2023-06-24T13:14:41;39.90;56.20
23251;DHT22;11794;49.730;10.088;2023-06-24T13:17:06;40.30;56.60
23251;DHT22;11794;49.730;10.088;2023-06-24T13:19:32;40.50;56.50
23251;DHT22;11794;49.730;10.088;2023-06-24T13:21:58;40.40;55.30
23251;DHT22;11794;49.730;10.088;2023-06-24T13:24:24;40.50;56.30
23251;DHT22;11794;49.730;10.088;2023-06-24T13:26:51;41.00;54.00
23251;DHT22;11794;49.730;10.088;2023-06-24T13:29:16;39.50;54.10
23251;DHT22;11794;49.730;10.088;2023-06-24T13:31:42;40.00;53.70
23251;DHT22;11794;49.730;10.088;2023-06-24T13:34:08;39.90;54.10
23251;DHT22;11794;49.730;10.088;2023-06-24T13:36:35;40.30;52.60
23251;DHT22;11794;49.730;10.088;2023-06-24T13:39:05;40.20;53.70
23251;DHT22;11794;49.730;10.088;2023-06-24T13:41:30;40.60;54.40
23251;DHT22;11794;49.730;10.088;2023-06-24T13:43:59;40.80;54.60
23251;DHT22;11794;49.730;10.088;2023-06-24T13:46:25;40.80;55.00
23251;DHT22;11794;49.730;10.088;2023-06-24T13:48:50;40.70;53.30
23251;DHT22;11794;49.730;10.088;2023-06-24T13:51:18;39.30;53.20
23251;DHT22;11794;49.730;10.088;2023-06-24T13:53:44;37.20;56.20
23251;DHT22;11794;49.730;10.088;2023-06-24T13:56:10;36.00;58.60
23251;DHT22;11794;49.730;10.088;2023-06-24T13:58:35;35.50;57.60
23251;DHT22;11794;49.730;10.088;2023-06-24T14:01:01;35.30;57.40
23251;DHT22;11794;49.730;10.088;2023-06-24T14:03:26;34.80;59.50
23251;DHT22;11794;49.730;10.088;2023-06-24T14:05:52;34.50;59.50
23251;DHT22;11794;49.730;10.088;2023-06-24T14:08:17;34.20;59.00
23251;DHT22;11794;49.730;10.088;2023-06-24T14:10:43;34.20;61.30
23251;DHT22;11794;49.730;10.088;2023-06-24T14:13:08;34.00;59.60
23251;DHT22;11794;49.730;10.088;2023-06-24T14:15:34;34.00;61.50
23251;DHT22;11794;49.730;10.088;2023-06-24T14:18:00;33.90;62.00
23251;DHT22;11794;49.730;10.088;2023-06-24T14:20:25;33.60;60.70
23251;DHT22;11794;49.730;10.088;2023-06-24T14:22:51;33.00;58.40
23251;DHT22;11794;49.730;10.088;2023-06-24T14:25:17;32.50;62.10
23251;DHT22;11794;49.730;10.088;2023-06-24T14:27:42;32.50;62.30
23251;DHT22;11794;49.730;10.088;2023-06-24T14:30:08;32.20;63.70
23251;DHT22;11794;49.730;10.088;2023-06-24T14:32:34;32.00;65.90
23251;DHT22;11794;49.730;10.088;2023-06-24T14:34:59;32.20;61.50
23251;DHT22;11794;49.730;10.088;2023-06-24T14:37:25;32.20;61.20
23251;DHT22;11794;49.730;10.088;2023-06-24T14:39:50;31.90;63.10
23251;DHT22;11794;49.730;10.088;2023-06-24T14:42:16;32.00;64.70
23251;DHT22;11794;49.730;10.088;2023-06-24T14:44:41;31.80;64.80
23251;DHT22;11794;49.730;10.088;2023-06-24T14:47:07;31.60;66.50
23251;DHT22;11794;49.730;10.088;2023-06-24T14:49:32;31.40;65.80
23251;DHT22;11794;49.730;10.088;2023-06-24T14:51:58;31.50;66.50
23251;DHT22;11794;49.730;10.088;2023-06-24T14:54:23;31.70;66.90
23251;DHT22;11794;49.730;10.088;2023-06-24T14:56:49;31.70;65.10
23251;DHT22;11794;49.730;10.088;2023-06-24T14:59:14;31.60;65.50
23251;DHT22;11794;49.730;10.088;2023-06-24T15:01:40;31.40;65.30
23251;DHT22;11794;49.730;10.088;2023-06-24T15:04:05;31.20;64.10
23251;DHT22;11794;49.730;10.088;2023-06-24T15:06:31;31.00;65.60
23251;DHT22;11794;49.730;10.088;2023-06-24T15:08:56;31.00;64.70
23251;DHT22;11794;49.730;10.088;2023-06-24T15:11:22;31.20;67.40
23251;DHT22;11794;49.730;10.088;2023-06-24T15:13:47;31.10;65.70
23251;DHT22;11794;49.730;10.088;2023-06-24T15:16:13;31.10;66.70
23251;DHT22;11794;49.730;10.088;2023-06-24T15:18:48;31.10;65.30
23251;DHT22;11794;49.730;10.088;2023-06-24T15:21:15;31.00;66.40
23251;DHT22;11794;49.730;10.088;2023-06-24T15:23:40;30.70;67.80
23251;DHT22;11794;49.730;10.088;2023-06-24T15:26:06;30.50;65.80
23251;DHT22;11794;49.730;10.088;2023-06-24T15:28:31;30.30;65.80